KLNL

Kings Land O' Lakes Airport

Land O' Lakes, Wisconsin, USA
METAR KLNL 211255Z AUTO 26004KT 10SM -SN BKN011 M15/M17 A3038 RMK AO2 T11501167
Observed Flight Rules
Feb-21 @ 12:55 UTC (22 minutes ago) Marginal Visual Flight Rules
Wind Visibility Clouds Conditions
260° at 4 knots 10 miles
  • Broken at 1,100' AGL
  • Light Snow
Temperatures Readings
Current -15°C / 5°F
Dewpoint -17°C / 1°F
Humidity 85%
Altimeter 30.38" Hg
Pressure 1029 hPa
Elevation 520
METAR KLNL 211255Z AUTO 26004KT 10SM -SN BKN011 M15/M17 A3038 RMK AO2 T11501167
Observed Flight Rules
Feb-21 @ 12:55 UTC
(22 minutes ago)
MVFR
Wind Visibility
260° at 4 knots 10 miles
Clouds
  • Broken at 1,100' AGL
Conditions
  • Light Snow
Temperature Dewpoint
-15°C / 5°F -17°C / 1°F
Humidity Altimeter Pressure
85% 30.38" Hg 1029 hPa